Lenox Township, Michigan
Current Conditions -  °F | °C
As of 10:55 AM on Thursday 30 Oct 2014 (Local Time) from KMTC Reporting Station
Scattered Clouds Scattered Clouds  
Wind Chill: 45°   Ceiling: Unl
Heat Index: 47°   Visibility: 12mi
Dew Point: 34°   Wind: 5mph
Humidity: 62%   Direction: 270°W
Pressure: 30.11"   Gusts: NA
Location:  42.7851°N, 82.803°W
Report Text: KMTC 301455Z 27004KT 12SM FEW030 SCT220 08/01 A3011 RMK SLP208 T00820012 51008
Loading
Personal Weather Stations






























Interactive Weather Map
Tropical Storm Tracking
New forecast layout! Learn more

10-Day Weather Forecast

Advertisements
Track Severe Weather on mobile